createdAt,value
2022-11-06T00:01:51.854Z,6.10
2022-11-06T00:04:18.550Z,6.10
2022-11-06T00:06:47.964Z,6.10
2022-11-06T00:09:20.092Z,6.00
2022-11-06T00:11:48.610Z,6.00
2022-11-06T00:14:16.086Z,6.10
2022-11-06T00:16:44.020Z,6.00
2022-11-06T00:19:11.558Z,6.00
2022-11-06T00:21:38.979Z,6.00
2022-11-06T00:24:07.560Z,6.00
2022-11-06T00:26:35.360Z,6.10
2022-11-06T00:29:03.575Z,5.90
2022-11-06T00:31:32.829Z,5.80
2022-11-06T00:34:01.002Z,6.00
2022-11-06T00:36:32.554Z,5.90
2022-11-06T00:39:00.035Z,5.90
2022-11-06T00:41:27.360Z,5.90
2022-11-06T00:43:59.582Z,5.90
2022-11-06T00:46:27.152Z,5.90
2022-11-06T00:48:54.562Z,5.90
2022-11-06T00:51:30.880Z,5.80
2022-11-06T00:54:04.117Z,5.80
2022-11-06T00:56:32.114Z,5.80
2022-11-06T00:59:00.402Z,5.70
2022-11-06T01:01:38.499Z,5.70
2022-11-06T01:04:08.644Z,5.60
2022-11-06T01:06:38.128Z,5.70
2022-11-06T01:09:05.811Z,5.50
2022-11-06T01:11:59.490Z,5.50
2022-11-06T01:14:23.328Z,5.60
2022-11-06T01:16:50.501Z,5.60
2022-11-06T01:19:18.916Z,5.50
2022-11-06T01:21:47.475Z,5.50
2022-11-06T01:24:17.590Z,5.40
2022-11-06T01:27:04.845Z,5.40
2022-11-06T01:29:31.287Z,5.40
2022-11-06T01:31:58.068Z,5.30
2022-11-06T01:34:24.789Z,5.30
2022-11-06T01:36:51.481Z,5.40
2022-11-06T01:39:18.283Z,5.30
2022-11-06T01:41:48.757Z,5.30
2022-11-06T01:44:56.406Z,5.30
2022-11-06T01:47:25.878Z,5.30
2022-11-06T01:49:57.305Z,5.00
2022-11-06T01:52:25.248Z,5.00
2022-11-06T01:54:56.858Z,5.10
2022-11-06T01:57:24.060Z,5.00
2022-11-06T01:59:54.522Z,5.10
2022-11-06T02:02:21.552Z,5.10
2022-11-06T02:04:49.874Z,5.20
2022-11-06T02:07:18.439Z,5.20
2022-11-06T02:09:45.080Z,5.20
2022-11-06T02:12:33.064Z,5.10
2022-11-06T02:15:13.460Z,5.30
2022-11-06T02:17:49.230Z,5.20
2022-11-06T02:20:31.124Z,5.20
2022-11-06T02:23:10.412Z,5.10
2022-11-06T02:25:58.987Z,4.90
2022-11-06T02:28:34.412Z,4.90
2022-11-06T02:31:07.874Z,4.60
2022-11-06T02:33:41.013Z,4.70
2022-11-06T02:36:12.084Z,4.90
2022-11-06T02:38:45.152Z,5.00
2022-11-06T02:41:22.885Z,4.90
2022-11-06T02:43:54.764Z,4.80
2022-11-06T02:46:27.209Z,5.00
2022-11-06T02:49:01.215Z,5.00
2022-11-06T02:51:31.872Z,4.90
2022-11-06T02:54:02.951Z,4.90
2022-11-06T02:56:34.283Z,4.90
2022-11-06T02:59:10.488Z,4.70
2022-11-06T03:01:40.136Z,4.80
2022-11-06T03:04:13.846Z,4.80
2022-11-06T03:06:49.419Z,4.80
2022-11-06T03:09:20.856Z,4.80
2022-11-06T03:11:55.595Z,4.80
2022-11-06T03:14:52.004Z,4.70
2022-11-06T03:17:32.903Z,4.70
2022-11-06T03:20:26.784Z,4.70
2022-11-06T03:23:09.395Z,4.70
2022-11-06T03:25:43.970Z,4.60
2022-11-06T03:28:13.363Z,4.50
2022-11-06T03:30:50.691Z,4.50
2022-11-06T03:33:46.196Z,4.50
2022-11-06T03:36:25.211Z,4.50
2022-11-06T03:38:56.039Z,4.50
2022-11-06T03:41:45.150Z,4.50
2022-11-06T03:44:17.210Z,4.50
2022-11-06T03:46:53.847Z,4.50
2022-11-06T03:49:30.530Z,4.60
2022-11-06T03:52:13.087Z,4.50
2022-11-06T03:54:44.359Z,4.40
2022-11-06T03:57:15.706Z,4.40
2022-11-06T03:59:47.789Z,4.40
2022-11-06T04:02:16.906Z,4.30
2022-11-06T04:04:55.376Z,4.40
2022-11-06T04:07:26.678Z,4.40
2022-11-06T04:10:17.398Z,4.40
2022-11-06T04:13:04.595Z,4.40
2022-11-06T04:15:35.728Z,4.40
2022-11-06T04:18:02.412Z,4.40
2022-11-06T04:20:57.961Z,4.40
2022-11-06T04:23:37.820Z,4.40
2022-11-06T04:26:36.151Z,4.30
2022-11-06T04:29:05.495Z,4.20
2022-11-06T04:31:55.485Z,4.20
2022-11-06T04:34:30.914Z,4.20
2022-11-06T04:37:08.649Z,4.20
2022-11-06T04:40:04.521Z,4.10
2022-11-06T04:42:41.196Z,4.00
2022-11-06T04:45:17.591Z,4.00
2022-11-06T04:47:45.954Z,4.10
2022-11-06T04:50:14.673Z,4.20
2022-11-06T04:52:43.497Z,4.20
2022-11-06T04:55:10.175Z,4.20
2022-11-06T04:57:36.814Z,4.20
2022-11-06T05:00:04.671Z,4.10
2022-11-06T05:02:31.382Z,4.10
2022-11-06T05:04:58.034Z,4.00
2022-11-06T05:07:24.675Z,4.00
2022-11-06T05:09:51.327Z,4.00
2022-11-06T05:12:17.971Z,4.00
2022-11-06T05:14:44.585Z,4.00
2022-11-06T05:17:11.203Z,4.00
2022-11-06T05:19:38.043Z,3.90
2022-11-06T05:22:23.467Z,3.90
2022-11-06T05:24:50.820Z,3.80
2022-11-06T05:27:17.596Z,3.80
2022-11-06T05:29:44.521Z,3.90
2022-11-06T05:32:11.314Z,3.90
2022-11-06T05:34:38.005Z,3.70
2022-11-06T05:37:04.671Z,3.80
2022-11-06T05:39:31.308Z,3.80
2022-11-06T05:41:57.946Z,3.80
2022-11-06T05:44:24.653Z,3.80
2022-11-06T05:46:51.266Z,3.70
2022-11-06T05:49:18.936Z,3.80
2022-11-06T05:51:46.626Z,3.80
2022-11-06T05:54:13.329Z,3.80
2022-11-06T05:56:39.970Z,3.70
2022-11-06T05:59:06.799Z,3.60
2022-11-06T06:01:33.592Z,3.80
2022-11-06T06:04:00.316Z,3.70
2022-11-06T06:06:27.342Z,3.70
2022-11-06T06:08:53.979Z,3.60
2022-11-06T06:11:20.599Z,3.50
2022-11-06T06:13:48.364Z,3.60
2022-11-06T06:16:15.828Z,3.60
2022-11-06T06:18:42.620Z,3.80
2022-11-06T06:21:09.278Z,3.70
2022-11-06T06:23:36.023Z,3.70
2022-11-06T06:26:02.759Z,3.70
2022-11-06T06:28:29.418Z,3.70
2022-11-06T06:31:01.249Z,3.70
2022-11-06T06:33:28.638Z,3.80
2022-11-06T06:35:55.312Z,3.70
2022-11-06T06:38:21.997Z,3.80
2022-11-06T06:40:48.805Z,3.90
2022-11-06T06:43:15.456Z,3.80
2022-11-06T06:45:42.134Z,3.70
2022-11-06T06:48:09.361Z,3.70
2022-11-06T06:50:36.142Z,3.80
2022-11-06T06:53:02.876Z,3.50
2022-11-06T06:55:29.547Z,3.70
2022-11-06T06:58:00.624Z,3.70
2022-11-06T07:00:28.238Z,3.70
2022-11-06T07:02:56.415Z,3.70
2022-11-06T07:05:23.353Z,3.80
2022-11-06T07:07:50.407Z,3.70
2022-11-06T07:10:17.258Z,3.70
2022-11-06T07:12:44.040Z,3.50
2022-11-06T07:15:11.457Z,3.50
2022-11-06T07:17:38.171Z,3.60
2022-11-06T07:20:05.521Z,3.50
2022-11-06T07:22:36.985Z,3.60
2022-11-06T07:25:05.499Z,3.60
2022-11-06T07:27:32.277Z,3.80
2022-11-06T07:30:00.456Z,3.80
2022-11-06T07:32:27.159Z,3.40
2022-11-06T07:34:53.827Z,3.50
2022-11-06T07:37:20.486Z,3.70
2022-11-06T07:39:47.137Z,3.90
2022-11-06T07:42:13.897Z,4.00
2022-11-06T07:44:40.497Z,3.80
2022-11-06T07:47:07.149Z,3.90
2022-11-06T07:49:33.830Z,4.00
2022-11-06T07:52:00.506Z,4.10
2022-11-06T07:54:27.172Z,3.60
2022-11-06T07:56:53.847Z,4.00
2022-11-06T07:59:20.499Z,4.00
2022-11-06T08:01:47.454Z,4.10
2022-11-06T08:04:14.241Z,4.00
2022-11-06T08:06:40.908Z,4.10
2022-11-06T08:09:08.546Z,4.40
2022-11-06T08:11:35.568Z,4.30
2022-11-06T08:14:02.655Z,4.20
2022-11-06T08:16:29.651Z,4.40
2022-11-06T08:18:56.564Z,4.50
2022-11-06T08:21:23.278Z,4.60
2022-11-06T08:23:49.920Z,4.80
2022-11-06T08:26:16.851Z,5.00
2022-11-06T08:28:43.572Z,5.00
2022-11-06T08:31:10.425Z,5.10
2022-11-06T08:33:39.125Z,5.30
2022-11-06T08:36:07.855Z,5.40
2022-11-06T08:38:34.985Z,5.50
2022-11-06T08:41:06.643Z,5.70
2022-11-06T08:43:33.348Z,5.80
2022-11-06T08:46:00.398Z,5.90
2022-11-06T08:48:27.341Z,5.90
2022-11-06T08:50:53.996Z,6.40
2022-11-06T08:53:20.676Z,6.40
2022-11-06T08:55:47.691Z,6.20
2022-11-06T08:58:14.393Z,6.40
2022-11-06T09:00:41.142Z,6.50
2022-11-06T09:03:11.787Z,6.70
2022-11-06T09:05:43.258Z,6.80
2022-11-06T09:08:11.076Z,6.90
2022-11-06T09:10:39.558Z,7.00
2022-11-06T09:13:06.450Z,7.10
2022-11-06T09:15:33.576Z,7.40
2022-11-06T09:18:00.218Z,7.60
2022-11-06T09:20:26.882Z,7.70
2022-11-06T09:22:54.149Z,7.60
2022-11-06T09:25:21.771Z,7.80
2022-11-06T09:27:55.668Z,7.80
2022-11-06T09:30:26.625Z,7.80
2022-11-06T09:32:59.536Z,8.00
2022-11-06T09:35:28.054Z,8.30
2022-11-06T09:37:54.711Z,8.20
2022-11-06T09:40:40.786Z,8.30
2022-11-06T09:43:31.783Z,8.00
2022-11-06T09:46:30.728Z,8.00
2022-11-06T09:49:10.807Z,8.00
2022-11-06T09:51:43.775Z,8.20
2022-11-06T09:54:22.841Z,8.10
2022-11-06T09:56:55.157Z,8.20
2022-11-06T09:59:22.324Z,8.40
2022-11-06T10:01:53.001Z,8.50
2022-11-06T10:04:38.348Z,8.30
2022-11-06T10:07:05.003Z,8.60
2022-11-06T10:09:31.697Z,8.70
2022-11-06T10:12:39.970Z,8.60
2022-11-06T10:15:38.519Z,8.60
2022-11-06T10:18:28.426Z,9.40
2022-11-06T10:21:06.255Z,10.80
2022-11-06T10:23:51.122Z,9.40
2022-11-06T10:26:20.081Z,9.40
2022-11-06T10:28:52.623Z,9.20
2022-11-06T10:31:45.707Z,9.00
2022-11-06T10:34:14.635Z,8.80
2022-11-06T10:36:49.951Z,8.70
2022-11-06T10:39:32.747Z,8.80
2022-11-06T10:42:11.202Z,9.10
2022-11-06T10:44:57.009Z,9.00
2022-11-06T10:47:28.999Z,9.00
2022-11-06T10:49:58.021Z,9.00
2022-11-06T10:52:37.867Z,9.30
2022-11-06T10:55:25.976Z,9.50
2022-11-06T10:58:02.342Z,9.30
2022-11-06T11:00:29.222Z,9.30
2022-11-06T11:02:59.605Z,9.40
2022-11-06T11:05:38.088Z,9.80
2022-11-06T11:08:05.146Z,10.00
2022-11-06T11:10:36.611Z,10.00
2022-11-06T11:13:08.447Z,10.20
2022-11-06T11:15:45.916Z,10.50
2022-11-06T11:18:12.813Z,10.60
2022-11-06T11:20:44.273Z,10.90
2022-11-06T11:23:17.070Z,11.00
2022-11-06T11:25:52.629Z,11.40
2022-11-06T11:28:36.902Z,11.40
2022-11-06T11:31:16.497Z,11.60
2022-11-06T11:33:55.675Z,11.70
2022-11-06T11:36:23.076Z,11.90
2022-11-06T11:38:51.499Z,12.10
2022-11-06T11:41:20.840Z,12.20
2022-11-06T11:44:05.728Z,12.40
2022-11-06T11:46:33.210Z,12.60
2022-11-06T11:49:00.259Z,13.00
2022-11-06T11:51:29.242Z,13.10
2022-11-06T11:54:01.353Z,13.20
2022-11-06T11:57:02.324Z,13.40
2022-11-06T11:59:21.980Z,13.50
2022-11-06T12:01:49.335Z,13.20
2022-11-06T12:04:27.352Z,13.60
2022-11-06T12:07:00.632Z,13.90
2022-11-06T12:09:29.590Z,14.30
2022-11-06T12:11:59.295Z,14.40
2022-11-06T12:14:29.985Z,14.50
2022-11-06T12:17:15.254Z,14.50
2022-11-06T12:19:48.111Z,14.90
2022-11-06T12:22:25.096Z,14.90
2022-11-06T12:24:58.360Z,15.00
2022-11-06T12:27:33.331Z,14.80
2022-11-06T12:30:09.888Z,15.00
2022-11-06T12:32:51.299Z,14.50
2022-11-06T12:35:40.295Z,14.40
2022-11-06T12:38:37.834Z,14.80
2022-11-06T12:41:13.892Z,14.80
2022-11-06T12:43:49.150Z,14.60
2022-11-06T12:46:34.515Z,14.60
2022-11-06T12:49:01.103Z,14.50
2022-11-06T12:51:33.439Z,14.20
2022-11-06T12:54:18.549Z,14.50
2022-11-06T12:57:27.797Z,14.40
2022-11-06T13:00:00.560Z,14.30
2022-11-06T13:02:56.910Z,14.30
2022-11-06T13:05:28.282Z,14.10
2022-11-06T13:08:19.478Z,13.80
2022-11-06T13:11:04.591Z,13.80
2022-11-06T13:13:45.189Z,14.10
2022-11-06T13:16:30.504Z,13.80
2022-11-06T13:19:10.798Z,13.80
2022-11-06T13:22:04.761Z,13.60
2022-11-06T13:24:44.044Z,13.70
2022-11-06T13:27:13.478Z,13.80
2022-11-06T13:29:41.875Z,13.40
2022-11-06T13:32:19.075Z,12.90
2022-11-06T13:34:49.466Z,12.70
2022-11-06T13:37:24.010Z,12.50
2022-11-06T13:40:04.480Z,12.70
2022-11-06T13:42:39.864Z,12.90
2022-11-06T13:45:09.153Z,12.50
2022-11-06T13:47:54.213Z,12.40
2022-11-06T13:51:22.186Z,12.40
2022-11-06T13:54:04.462Z,12.10
2022-11-06T13:56:53.841Z,12.10
2022-11-06T13:59:41.849Z,12.20
2022-11-06T14:02:55.854Z,11.60
2022-11-06T14:05:40.278Z,11.60
2022-11-06T14:08:15.904Z,11.60
2022-11-06T14:10:51.585Z,11.40
2022-11-06T14:13:24.837Z,11.10
2022-11-06T14:16:14.263Z,11.30
2022-11-06T14:18:41.853Z,11.60
2022-11-06T14:21:44.643Z,11.50
2022-11-06T14:24:34.028Z,11.40
2022-11-06T14:27:08.974Z,11.20
2022-11-06T14:29:35.669Z,11.10
2022-11-06T14:32:32.571Z,11.10
2022-11-06T14:35:28.533Z,10.90
2022-11-06T14:38:10.354Z,11.00
2022-11-06T14:40:39.093Z,10.90
2022-11-06T14:43:33.635Z,10.70
2022-11-06T14:46:07.329Z,10.80
2022-11-06T14:48:40.332Z,10.70
2022-11-06T14:51:10.078Z,10.40
2022-11-06T14:53:50.560Z,10.60
2022-11-06T14:56:26.074Z,10.70
2022-11-06T14:59:49.223Z,10.60
2022-11-06T15:02:23.998Z,10.50
2022-11-06T15:05:00.562Z,10.50
2022-11-06T15:08:02.745Z,10.60
2022-11-06T15:10:44.418Z,10.40
2022-11-06T15:13:17.900Z,10.30
2022-11-06T15:15:48.031Z,10.40
2022-11-06T15:18:20.139Z,10.30
2022-11-06T15:21:00.443Z,10.30
2022-11-06T15:23:47.946Z,10.30
2022-11-06T15:26:53.051Z,10.20
2022-11-06T15:29:29.006Z,10.00
2022-11-06T15:32:12.457Z,10.20
2022-11-06T15:34:42.591Z,10.30
2022-11-06T15:37:29.277Z,10.10
2022-11-06T15:40:01.040Z,10.10
2022-11-06T15:42:35.634Z,10.10
2022-11-06T15:45:20.090Z,10.20
2022-11-06T15:48:22.448Z,10.00
2022-11-06T15:50:49.255Z,10.00
2022-11-06T15:53:23.043Z,10.10
2022-11-06T15:55:59.573Z,9.80
2022-11-06T15:58:30.847Z,9.80
2022-11-06T16:01:00.033Z,9.80
2022-11-06T16:03:31.269Z,9.40
2022-11-06T16:06:01.825Z,9.40
2022-11-06T16:08:31.155Z,9.50
2022-11-06T16:10:58.658Z,9.60
2022-11-06T16:13:26.588Z,9.50
2022-11-06T16:15:58.967Z,9.50
2022-11-06T16:18:44.471Z,9.20
2022-11-06T16:21:13.435Z,9.10
2022-11-06T16:23:43.188Z,8.90
2022-11-06T16:26:13.949Z,9.10
2022-11-06T16:28:46.569Z,9.00
2022-11-06T16:31:17.784Z,8.70
2022-11-06T16:33:57.765Z,8.60
2022-11-06T16:36:26.807Z,8.70
2022-11-06T16:38:54.458Z,8.50
2022-11-06T16:41:46.752Z,8.60
2022-11-06T16:44:30.777Z,8.80
2022-11-06T16:47:10.278Z,8.90
2022-11-06T16:49:38.119Z,8.70
2022-11-06T16:52:24.345Z,8.60
2022-11-06T16:54:55.286Z,8.60
2022-11-06T16:57:28.322Z,8.70
2022-11-06T17:00:06.998Z,8.90
2022-11-06T17:02:37.549Z,8.90
2022-11-06T17:05:18.725Z,8.90
2022-11-06T17:07:46.255Z,8.80
2022-11-06T17:10:25.165Z,8.80
2022-11-06T17:12:51.882Z,8.80
2022-11-06T17:15:19.321Z,8.90
2022-11-06T17:17:46.122Z,8.70
2022-11-06T17:20:17.044Z,8.60
2022-11-06T17:22:44.139Z,8.70
2022-11-06T17:25:10.938Z,8.60
2022-11-06T17:27:37.585Z,8.60
2022-11-06T17:30:04.678Z,8.60
2022-11-06T17:32:31.423Z,8.60
2022-11-06T17:34:58.069Z,8.70
2022-11-06T17:37:25.550Z,8.80
2022-11-06T17:39:52.198Z,8.80
2022-11-06T17:42:18.844Z,8.60
2022-11-06T17:44:45.498Z,8.80
2022-11-06T17:47:12.130Z,8.80
2022-11-06T17:49:38.753Z,8.80
2022-11-06T17:52:05.632Z,8.80
2022-11-06T17:54:34.123Z,8.80
2022-11-06T17:57:03.365Z,8.90
2022-11-06T17:59:30.839Z,8.80
2022-11-06T18:01:57.955Z,8.80
2022-11-06T18:04:26.447Z,8.90
2022-11-06T18:06:54.103Z,8.70
2022-11-06T18:09:22.240Z,8.80
2022-11-06T18:11:50.257Z,8.90
2022-11-06T18:14:17.685Z,8.90
2022-11-06T18:16:44.345Z,8.80
2022-11-06T18:19:14.211Z,8.90
2022-11-06T18:21:40.854Z,9.00
2022-11-06T18:24:08.271Z,8.80
2022-11-06T18:26:37.229Z,9.00
2022-11-06T18:29:05.204Z,9.00
2022-11-06T18:31:32.034Z,8.90
2022-11-06T18:33:58.740Z,8.90
2022-11-06T18:36:25.511Z,8.90
2022-11-06T18:38:52.359Z,9.00
2022-11-06T18:41:21.107Z,8.90
2022-11-06T18:43:48.153Z,8.80
2022-11-06T18:46:19.313Z,8.90
2022-11-06T18:48:46.281Z,8.90
2022-11-06T18:51:33.433Z,8.90
2022-11-06T18:54:04.431Z,8.80
2022-11-06T18:56:31.503Z,8.80
2022-11-06T18:58:58.214Z,8.90
2022-11-06T19:01:25.777Z,8.80
2022-11-06T19:03:52.513Z,8.70
2022-11-06T19:06:20.506Z,8.80
2022-11-06T19:08:48.808Z,8.80
2022-11-06T19:11:16.468Z,8.70
2022-11-06T19:13:47.533Z,8.80
2022-11-06T19:16:15.186Z,8.80
2022-11-06T19:18:41.935Z,8.80
2022-11-06T19:21:10.871Z,8.60
2022-11-06T19:23:39.693Z,8.60
2022-11-06T19:29:00.034Z,8.60
2022-11-06T19:31:30.451Z,8.70
2022-11-06T19:34:01.699Z,8.60
2022-11-06T19:36:29.114Z,8.60
2022-11-06T19:38:58.308Z,8.60
2022-11-06T19:41:26.158Z,8.60
2022-11-06T19:43:53.128Z,8.60
2022-11-06T19:46:25.723Z,8.70
2022-11-06T19:48:55.040Z,8.70
2022-11-06T19:51:21.747Z,8.70
2022-11-06T19:53:52.991Z,8.70
2022-11-06T19:56:19.843Z,8.60
2022-11-06T19:58:48.444Z,8.50
2022-11-06T20:01:15.258Z,8.50
2022-11-06T20:03:42.459Z,8.40
2022-11-06T20:06:09.482Z,8.40
2022-11-06T20:08:38.569Z,8.50
2022-11-06T20:11:07.472Z,8.50
2022-11-06T20:13:36.469Z,8.60
2022-11-06T20:16:04.615Z,8.70
2022-11-06T20:18:31.799Z,8.70
2022-11-06T20:21:07.426Z,8.70
2022-11-06T20:23:35.472Z,8.70
2022-11-06T20:26:02.285Z,8.50
2022-11-06T20:28:29.085Z,8.50
2022-11-06T20:30:56.922Z,8.50
2022-11-06T20:33:23.607Z,8.40
2022-11-06T20:35:50.566Z,8.40
2022-11-06T20:38:17.558Z,8.60
2022-11-06T20:40:45.021Z,8.60
2022-11-06T20:43:12.216Z,8.70
2022-11-06T20:45:39.894Z,8.80
2022-11-06T20:48:07.926Z,8.70
2022-11-06T20:50:34.713Z,8.60
2022-11-06T20:53:01.353Z,8.60
2022-11-06T20:55:29.026Z,8.60
2022-11-06T20:57:55.782Z,8.50
2022-11-06T21:00:22.586Z,8.50
2022-11-06T21:02:49.364Z,8.70
2022-11-06T21:05:16.320Z,8.80
2022-11-06T21:07:43.093Z,8.80
2022-11-06T21:10:12.612Z,8.60
2022-11-06T21:12:39.281Z,8.70
2022-11-06T21:15:06.579Z,8.60
2022-11-06T21:17:33.333Z,8.50
2022-11-06T21:20:00.022Z,8.50
2022-11-06T21:22:26.690Z,8.50
2022-11-06T21:24:53.346Z,8.50
2022-11-06T21:27:20.086Z,8.60
2022-11-06T21:29:46.717Z,8.70
2022-11-06T21:32:13.461Z,8.70
2022-11-06T21:34:40.117Z,8.70
2022-11-06T21:37:06.764Z,8.80
2022-11-06T21:39:36.559Z,8.70
2022-11-06T21:42:04.643Z,8.70
2022-11-06T21:44:31.352Z,8.60
2022-11-06T21:46:58.162Z,8.50
2022-11-06T21:49:24.783Z,8.60
2022-11-06T21:51:51.420Z,8.50
2022-11-06T21:54:36.535Z,8.50
2022-11-06T21:57:03.218Z,8.30
2022-11-06T21:59:30.078Z,8.10
2022-11-06T22:01:57.238Z,8.10
2022-11-06T22:04:24.095Z,8.00
2022-11-06T22:06:52.300Z,8.00
2022-11-06T22:09:24.514Z,7.70
2022-11-06T22:11:51.889Z,7.90
2022-11-06T22:14:18.522Z,7.80
2022-11-06T22:16:46.742Z,7.80
2022-11-06T22:19:15.093Z,7.80
2022-11-06T22:21:42.382Z,7.70
2022-11-06T22:24:11.635Z,7.80
2022-11-06T22:26:38.742Z,8.00
2022-11-06T22:29:08.754Z,8.00
2022-11-06T22:31:35.618Z,8.10
2022-11-06T22:34:02.439Z,8.10
2022-11-06T22:36:29.301Z,8.30
2022-11-06T22:38:56.666Z,8.40
2022-11-06T22:41:24.702Z,8.40
2022-11-06T22:43:52.394Z,8.50
2022-11-06T22:46:22.453Z,8.50
2022-11-06T22:48:50.993Z,8.50
2022-11-06T22:51:23.503Z,8.50
2022-11-06T22:53:50.758Z,8.60
2022-11-06T22:56:17.960Z,8.70
2022-11-06T22:58:45.006Z,8.70
2022-11-06T23:01:12.343Z,8.70
2022-11-06T23:03:39.752Z,8.80
2022-11-06T23:06:09.401Z,8.70
2022-11-06T23:08:40.564Z,8.80
2022-11-06T23:11:12.831Z,8.80
2022-11-06T23:13:40.174Z,8.80
2022-11-06T23:16:09.891Z,8.80
2022-11-06T23:18:36.951Z,8.80
2022-11-06T23:21:14.484Z,8.90
2022-11-06T23:23:42.985Z,8.80
2022-11-06T23:26:19.310Z,8.90
2022-11-06T23:28:46.720Z,8.90
2022-11-06T23:31:15.194Z,8.90
2022-11-06T23:33:44.640Z,9.00
2022-11-06T23:36:13.574Z,8.90
2022-11-06T23:38:40.917Z,9.00
2022-11-06T23:41:28.484Z,8.90
2022-11-06T23:43:55.574Z,8.90
2022-11-06T23:46:24.787Z,9.00
2022-11-06T23:48:52.165Z,9.00
2022-11-06T23:51:19.540Z,9.00
2022-11-06T23:53:46.169Z,9.00
2022-11-06T23:56:13.257Z,9.00
2022-11-06T23:58:40.940Z,9.00
